Time;durP1;ratioP1;P1;durP2;ratioP2;P2;SDS_P1;SDS_P2;PMS_P1;PMS_P2;Temp;Humidity;BMP_temperature;BMP_pressure;BME280_temperature;BME280_humidity;BME280_pressure;Samples;Min_cycle;Max_cycle;Signal;HPM_P1;HPM_P2
2023/03/14 00:00:52;;;;;;;2.13;1.13;;;12.60;99.90;;;;;;5066049;28;20454;-73
2023/03/14 00:03:19;;;;;;;2.63;1.00;;;12.50;99.90;;;;;;5069292;28;20545;-73
2023/03/14 00:05:46;;;;;;;4.20;1.53;;;12.50;99.90;;;;;;5065430;28;20875;-73
2023/03/14 00:08:14;;;;;;;2.33;1.67;;;12.50;99.90;;;;;;5072942;28;20458;-73
2023/03/14 00:10:42;;;;;;;1.47;1.20;;;12.50;99.90;;;;;;5066501;28;20527;-73
2023/03/14 00:13:09;;;;;;;1.57;1.00;;;12.40;99.90;;;;;;5064579;28;20816;-73
2023/03/14 00:15:36;;;;;;;19.03;1.67;;;12.40;99.90;;;;;;5064020;28;21040;-73
2023/03/14 00:18:04;;;;;;;1.10;0.80;;;12.40;99.90;;;;;;5055973;28;20439;-72
2023/03/14 00:20:30;;;;;;;9.23;1.60;;;12.30;99.90;;;;;;5073035;28;20561;-73
2023/03/14 00:22:57;;;;;;;2.90;1.13;;;12.40;99.90;;;;;;5076368;28;20459;-73
2023/03/14 00:25:26;;;;;;;2.23;1.83;;;12.30;99.90;;;;;;5060424;28;20485;-73
2023/03/14 00:27:53;;;;;;;1.77;1.07;;;12.40;99.90;;;;;;5065300;28;20900;-73
2023/03/14 00:30:20;;;;;;;2.57;1.10;;;12.30;99.90;;;;;;5065339;28;20530;-73
2023/03/14 00:32:47;;;;;;;1.87;1.37;;;12.30;99.90;;;;;;5074896;28;20490;-72
2023/03/14 00:35:14;;;;;;;5.57;1.67;;;12.30;99.90;;;;;;5069666;28;20533;-73
2023/03/14 00:37:41;;;;;;;4.73;1.57;;;12.20;99.90;;;;;;5035824;28;20493;-72
2023/03/14 00:40:09;;;;;;;3.00;1.40;;;12.30;99.90;;;;;;5057832;28;20483;-73
2023/03/14 00:42:38;;;;;;;3.80;1.10;;;12.30;99.90;;;;;;5071795;28;20529;-73
2023/03/14 00:45:07;;;;;;;4.23;2.00;;;12.20;99.90;;;;;;5061055;28;20467;-73
2023/03/14 00:47:34;;;;;;;1.63;1.20;;;12.20;99.90;;;;;;5064051;28;20527;-74
2023/03/14 00:50:01;;;;;;;6.70;1.57;;;12.20;99.90;;;;;;5073354;28;20543;-73
2023/03/14 00:52:28;;;;;;;2.60;1.27;;;12.30;99.90;;;;;;5064370;28;20513;-76
2023/03/14 00:54:55;;;;;;;3.20;1.20;;;12.40;99.90;;;;;;5062927;28;20442;-73
2023/03/14 00:57:21;;;;;;;1.40;1.07;;;12.40;99.90;;;;;;5062992;28;20570;-73
2023/03/14 00:59:52;;;;;;;2.20;1.40;;;12.40;99.90;;;;;;5069888;28;20553;-72
2023/03/14 01:02:19;;;;;;;2.87;1.30;;;12.50;99.90;;;;;;5066312;28;20529;-73
2023/03/14 01:04:49;;;;;;;1.67;0.97;;;12.50;99.90;;;;;;5028989;28;20459;-73
2023/03/14 01:07:16;;;;;;;3.30;1.43;;;12.40;99.90;;;;;;5064786;28;20832;-73
2023/03/14 01:09:43;;;;;;;1.97;1.30;;;12.20;99.90;;;;;;5067735;28;20459;-73
2023/03/14 01:12:10;;;;;;;1.67;1.13;;;11.80;99.90;;;;;;5070408;28;20437;-73
2023/03/14 01:14:37;;;;;;;2.83;0.97;;;11.60;99.90;;;;;;5071584;28;20897;-73
2023/03/14 01:17:05;;;;;;;1.00;0.73;;;11.30;99.90;;;;;;5053937;28;20991;-73
2023/03/14 01:19:32;;;;;;;2.50;1.10;;;11.10;99.90;;;;;;5058706;28;20565;-72
2023/03/14 01:21:59;;;;;;;3.30;1.60;;;10.90;99.90;;;;;;5081260;28;20489;-72
2023/03/14 01:24:26;;;;;;;2.03;1.00;;;10.70;99.90;;;;;;5079073;28;20437;-72
2023/03/14 01:26:53;;;;;;;1.57;1.00;;;10.60;99.90;;;;;;5072414;28;20534;-72
2023/03/14 01:29:20;;;;;;;1.37;0.90;;;10.50;99.90;;;;;;5068241;28;20573;-73
2023/03/14 01:31:47;;;;;;;1.00;0.70;;;10.40;99.90;;;;;;5069754;28;21293;-72
2023/03/14 01:34:15;;;;;;;1.60;0.80;;;10.40;99.90;;;;;;5082312;28;20443;-72
2023/03/14 01:36:42;;;;;;;1.10;0.80;;;10.30;99.90;;;;;;5062477;28;20907;-72
2023/03/14 01:39:09;;;;;;;1.70;0.90;;;10.20;99.90;;;;;;5069250;28;20838;-72
2023/03/14 01:41:37;;;;;;;2.03;1.80;;;10.10;99.90;;;;;;5071844;28;20432;-72
2023/03/14 01:44:05;;;;;;;1.70;0.87;;;10.10;99.90;;;;;;5036639;28;20466;-72
2023/03/14 01:46:37;;;;;;;1.07;0.90;;;10.10;99.90;;;;;;5067710;28;20560;-72
2023/03/14 01:49:19;;;;;;;1.27;1.00;;;10.10;99.90;;;;;;5061353;28;20562;-71
2023/03/14 01:51:51;;;;;;;2.60;1.00;;;10.10;99.90;;;;;;5058338;28;20492;-72
2023/03/14 01:54:24;;;;;;;1.40;0.90;;;10.10;99.90;;;;;;5061817;28;20535;-73
2023/03/14 01:56:59;;;;;;;9.03;1.20;;;10.10;99.90;;;;;;5069962;28;20960;-72
2023/03/14 01:59:27;;;;;;;1.70;1.00;;;10.10;99.90;;;;;;5068793;28;20498;-73
2023/03/14 02:01:56;;;;;;;21.43;1.90;;;10.20;99.90;;;;;;5060743;28;20456;-72
2023/03/14 02:04:28;;;;;;;1.30;1.00;;;10.20;99.90;;;;;;5063661;28;20509;-73
2023/03/14 02:07:00;;;;;;;2.93;1.10;;;10.20;99.90;;;;;;5065449;28;20577;-72
2023/03/14 02:09:27;;;;;;;2.73;1.50;;;10.20;99.90;;;;;;5070469;28;20538;-73
2023/03/14 02:11:54;;;;;;;3.60;1.40;;;10.20;99.90;;;;;;5061929;28;20459;-73
2023/03/14 02:14:29;;;;;;;5.73;1.40;;;10.20;99.90;;;;;;5067050;28;20432;-73
2023/03/14 02:16:56;;;;;;;1.40;0.80;;;10.20;99.90;;;;;;5063958;28;20470;-74
2023/03/14 02:19:36;;;;;;;3.13;1.23;;;10.20;99.90;;;;;;5068768;28;20478;-72
2023/03/14 02:22:08;;;;;;;1.10;0.90;;;10.30;99.90;;;;;;5031404;28;20465;-72
2023/03/14 02:24:43;;;;;;;1.07;0.97;;;10.20;99.90;;;;;;5068542;28;20461;-72
2023/03/14 02:27:13;;;;;;;1.90;1.00;;;10.20;99.90;;;;;;5064983;28;20517;-72
2023/03/14 02:29:47;;;;;;;4.90;1.17;;;10.20;99.90;;;;;;5066052;28;20465;-72
2023/03/14 02:32:16;;;;;;;1.27;1.03;;;10.30;99.90;;;;;;5063467;28;20439;-73
2023/03/14 02:34:49;;;;;;;1.10;0.80;;;10.30;99.90;;;;;;5071575;28;20470;-73
2023/03/14 02:37:19;;;;;;;5.03;1.00;;;10.30;99.90;;;;;;5068179;28;20532;-73
2023/03/14 02:39:48;;;;;;;1.57;0.87;;;10.30;99.90;;;;;;5068900;28;20450;-73
2023/03/14 02:42:17;;;;;;;1.37;1.00;;;10.30;99.90;;;;;;5068035;28;20447;-73
2023/03/14 02:44:54;;;;;;;1.00;0.80;;;10.30;99.90;;;;;;5076627;28;20503;-73
2023/03/14 02:47:27;;;;;;;2.60;1.10;;;10.30;99.90;;;;;;5070340;28;20456;-73
2023/03/14 02:50:02;;;;;;;1.90;1.10;;;10.40;99.90;;;;;;5069803;28;20453;-73
2023/03/14 02:52:30;;;;;;;3.27;1.10;;;10.40;99.90;;;;;;5068275;28;20446;-73
2023/03/14 02:54:56;;;;;;;3.00;1.30;;;10.50;99.90;;;;;;5029182;28;20448;-73
2023/03/14 02:57:25;;;;;;;1.00;0.80;;;10.50;99.90;;;;;;5071128;28;20990;-71
2023/03/14 02:59:52;;;;;;;1.23;0.70;;;10.50;99.90;;;;;;5072785;28;20581;-72
2023/03/14 03:02:21;;;;;;;2.27;1.10;;;10.50;99.90;;;;;;5060568;28;20437;-72
2023/03/14 03:04:48;;;;;;;15.53;1.93;;;10.50;99.90;;;;;;5075795;28;20445;-71
2023/03/14 03:07:15;;;;;;;9.50;1.27;;;10.60;99.90;;;;;;5066194;28;20511;-72
2023/03/14 03:09:42;;;;;;;2.30;1.20;;;10.70;99.90;;;;;;5074991;28;20541;-72
2023/03/14 03:12:12;;;;;;;6.00;1.13;;;10.70;99.90;;;;;;5067574;28;20454;-72
2023/03/14 03:14:40;;;;;;;1.20;1.00;;;10.70;99.90;;;;;;5073190;28;20509;-71
2023/03/14 03:17:07;;;;;;;2.33;1.03;;;10.60;99.90;;;;;;5067002;28;20557;-72
2023/03/14 03:19:35;;;;;;;2.27;1.00;;;10.60;99.90;;;;;;5066733;28;20835;-72
2023/03/14 03:22:02;;;;;;;2.90;1.50;;;10.50;99.90;;;;;;5066710;28;20499;-72
2023/03/14 03:24:29;;;;;;;2.60;1.43;;;10.50;99.90;;;;;;5065344;28;20554;-72
2023/03/14 03:26:56;;;;;;;11.50;2.50;;;10.50;99.90;;;;;;5066755;28;20532;-72
2023/03/14 03:29:23;;;;;;;1.63;1.00;;;10.40;99.90;;;;;;5074943;28;20436;-72
2023/03/14 03:31:51;;;;;;;9.73;1.43;;;10.40;99.90;;;;;;5072755;28;20465;-72
2023/03/14 03:34:18;;;;;;;3.33;1.20;;;10.40;99.90;;;;;;5072814;28;20545;-72
2023/03/14 03:36:45;;;;;;;2.50;1.13;;;10.40;99.90;;;;;;5076040;28;20531;-73
2023/03/14 03:39:12;;;;;;;10.63;1.83;;;10.40;99.90;;;;;;5068969;28;20454;-72
2023/03/14 03:41:39;;;;;;;1.47;1.03;;;10.40;99.90;;;;;;5070365;28;20453;-72
2023/03/14 03:44:06;;;;;;;2.37;1.30;;;10.40;99.90;;;;;;5063891;28;20461;-72
2023/03/14 03:46:33;;;;;;;3.73;1.80;;;10.40;99.90;;;;;;5067089;28;20852;-72
2023/03/14 03:49:02;;;;;;;1.93;1.10;;;10.40;99.90;;;;;;5072765;28;20465;-73
2023/03/14 03:51:29;;;;;;;13.97;1.73;;;10.50;99.90;;;;;;5070722;28;20483;-72
2023/03/14 03:53:57;;;;;;;1.40;1.03;;;10.60;99.90;;;;;;5073004;28;20434;-73
2023/03/14 03:56:24;;;;;;;2.03;1.03;;;10.60;99.90;;;;;;5085807;28;20449;-72
2023/03/14 03:58:53;;;;;;;2.50;1.13;;;10.60;99.90;;;;;;5085855;28;20843;-72
2023/03/14 04:01:21;;;;;;;2.90;1.30;;;10.60;99.90;;;;;;5067831;28;20457;-72
2023/03/14 04:03:48;;;;;;;4.10;1.30;;;10.50;99.90;;;;;;5073137;28;20447;-72
2023/03/14 04:06:16;;;;;;;2.37;1.43;;;10.50;99.90;;;;;;5072603;28;20532;-72
2023/03/14 04:08:44;;;;;;;4.80;1.50;;;10.60;99.90;;;;;;5069670;28;21013;-71
2023/03/14 04:11:12;;;;;;;1.10;0.90;;;10.60;99.90;;;;;;5068334;28;20443;-72
2023/03/14 04:13:39;;;;;;;4.10;1.20;;;10.70;99.90;;;;;;5070048;28;20433;-72
2023/03/14 04:16:15;;;;;;;5.53;1.40;;;10.70;99.90;;;;;;5064173;28;20486;-72
2023/03/14 04:18:42;;;;;;;3.10;1.20;;;10.70;99.90;;;;;;5072805;28;20457;-72
2023/03/14 04:21:09;;;;;;;2.37;1.07;;;10.70;99.90;;;;;;5068404;28;20471;-72
2023/03/14 04:23:37;;;;;;;1.70;1.07;;;10.60;99.90;;;;;;5073744;28;20925;-72
2023/03/14 04:26:05;;;;;;;3.17;1.40;;;10.50;99.90;;;;;;5064759;28;20575;-72
2023/03/14 04:28:32;;;;;;;1.73;1.23;;;10.60;99.90;;;;;;5070192;28;20466;-72
2023/03/14 04:30:58;;;;;;;1.30;0.90;;;10.50;99.90;;;;;;5034131;28;20957;-72
2023/03/14 04:33:26;;;;;;;1.43;1.23;;;10.50;99.90;;;;;;5071086;28;20462;-72
2023/03/14 04:35:55;;;;;;;2.20;1.27;;;10.50;99.90;;;;;;5074409;28;20469;-72
2023/03/14 04:38:22;;;;;;;1.60;1.20;;;10.50;99.90;;;;;;5070489;28;20437;-72
2023/03/14 04:40:51;;;;;;;9.83;2.30;;;10.50;99.90;;;;;;5070277;28;20557;-72
2023/03/14 04:43:18;;;;;;;1.10;0.80;;;10.50;99.90;;;;;;5071272;28;20478;-72
2023/03/14 04:45:45;;;;;;;1.30;1.00;;;10.40;99.90;;;;;;5065943;28;20428;-72
2023/03/14 04:48:12;;;;;;;4.13;1.33;;;10.40;99.90;;;;;;5064535;28;20500;-73
2023/03/14 04:50:39;;;;;;;0.90;0.70;;;10.30;99.90;;;;;;5068682;28;20449;-72
2023/03/14 04:53:06;;;;;;;2.17;0.90;;;10.30;99.90;;;;;;5067740;28;20429;-72
2023/03/14 04:55:35;;;;;;;2.40;0.80;;;10.10;99.90;;;;;;5077095;28;20443;-72
2023/03/14 04:58:04;;;;;;;1.57;0.77;;;9.90;99.90;;;;;;5035041;28;20499;-72
2023/03/14 05:00:33;;;;;;;0.90;0.70;;;9.90;99.90;;;;;;5068831;28;20456;-72
2023/03/14 05:03:00;;;;;;;2.13;1.00;;;9.90;99.90;;;;;;5069849;28;20451;-72
2023/03/14 05:05:27;;;;;;;0.90;0.70;;;9.90;99.90;;;;;;5064490;28;20809;-72
2023/03/14 05:07:54;;;;;;;0.90;0.70;;;9.80;99.90;;;;;;5060505;28;20514;-71
2023/03/14 05:10:21;;;;;;;0.97;0.70;;;9.80;99.90;;;;;;5069874;28;20814;-71
2023/03/14 05:12:48;;;;;;;1.20;0.90;;;9.70;99.90;;;;;;5025769;28;20512;-72
2023/03/14 05:15:17;;;;;;;4.43;1.87;;;9.60;99.90;;;;;;5061881;28;20461;-71
2023/03/14 05:17:44;;;;;;;1.10;0.80;;;9.70;99.90;;;;;;5070228;28;20478;-71
2023/03/14 05:20:12;;;;;;;0.90;0.70;;;9.60;99.90;;;;;;5064122;28;20542;-72
2023/03/14 05:22:40;;;;;;;1.00;0.70;;;9.50;99.90;;;;;;5023811;28;20482;-72
2023/03/14 05:25:07;;;;;;;1.10;0.80;;;9.50;99.90;;;;;;5061587;28;20882;-72
2023/03/14 05:27:35;;;;;;;1.00;0.70;;;9.50;99.90;;;;;;5069184;28;20459;-72
2023/03/14 05:30:02;;;;;;;1.27;0.90;;;9.40;99.90;;;;;;5058598;28;20434;-71
2023/03/14 05:32:34;;;;;;;1.73;1.03;;;9.40;99.90;;;;;;5081050;28;20442;-72
2023/03/14 05:35:01;;;;;;;1.20;0.87;;;9.40;99.90;;;;;;5067717;28;20430;-72
2023/03/14 05:37:28;;;;;;;1.00;0.70;;;9.40;99.90;;;;;;5079199;28;20484;-72
2023/03/14 05:39:55;;;;;;;0.90;0.60;;;9.40;99.90;;;;;;5066329;28;20512;-72
2023/03/14 05:42:22;;;;;;;1.57;1.47;;;9.40;99.90;;;;;;5067526;28;20480;-72
2023/03/14 05:44:49;;;;;;;1.60;0.70;;;9.40;99.90;;;;;;5067466;28;20453;-72
2023/03/14 05:47:16;;;;;;;1.00;0.70;;;9.40;99.90;;;;;;5061971;28;20536;-72
2023/03/14 05:49:44;;;;;;;1.00;0.70;;;9.40;99.90;;;;;;5065540;28;20465;-72
2023/03/14 05:52:11;;;;;;;1.50;0.87;;;9.50;99.90;;;;;;5068721;28;20984;-72
2023/03/14 05:54:38;;;;;;;1.13;0.90;;;9.40;99.90;;;;;;5078657;28;20436;-72
2023/03/14 05:57:08;;;;;;;1.10;0.80;;;9.50;99.90;;;;;;5070738;28;20481;-72
2023/03/14 05:59:35;;;;;;;1.00;0.80;;;9.60;99.90;;;;;;5069617;28;20461;-72
2023/03/14 06:02:02;;;;;;;1.20;0.83;;;9.50;99.90;;;;;;5071757;28;20513;-72
2023/03/14 06:04:29;;;;;;;3.40;2.13;;;9.50;99.90;;;;;;5070849;28;20545;-72
2023/03/14 06:06:57;;;;;;;3.87;2.53;;;9.50;99.90;;;;;;5072088;28;20469;-73
2023/03/14 06:09:25;;;;;;;4.10;1.60;;;9.60;99.90;;;;;;5071850;28;20471;-73
2023/03/14 06:11:54;;;;;;;1.40;1.30;;;9.70;99.90;;;;;;5073348;28;20488;-73
2023/03/14 06:14:21;;;;;;;1.27;1.00;;;9.60;99.90;;;;;;5072683;28;20807;-73
2023/03/14 06:16:48;;;;;;;2.93;1.00;;;9.70;99.90;;;;;;5068493;28;20505;-72
2023/03/14 06:19:16;;;;;;;1.00;0.80;;;9.70;99.90;;;;;;5074564;28;20601;-73
2023/03/14 06:21:43;;;;;;;1.17;0.97;;;9.70;99.90;;;;;;5041860;28;20449;-73
2023/03/14 06:24:11;;;;;;;2.80;1.40;;;9.70;99.90;;;;;;5062327;28;20475;-73
2023/03/14 06:26:38;;;;;;;1.40;1.27;;;9.60;99.90;;;;;;5069703;28;20516;-73
2023/03/14 06:29:06;;;;;;;1.00;0.90;;;9.80;99.90;;;;;;5065727;28;20429;-72
2023/03/14 06:31:35;;;;;;;2.07;1.47;;;9.90;99.90;;;;;;5084582;28;20524;-73
2023/03/14 06:34:03;;;;;;;1.20;1.10;;;9.80;99.90;;;;;;5076669;28;20978;-73
2023/03/14 06:36:29;;;;;;;1.20;0.87;;;9.90;99.90;;;;;;5078281;28;20973;-73
2023/03/14 06:38:59;;;;;;;4.40;1.40;;;9.90;99.90;;;;;;5069421;28;20922;-73
2023/03/14 06:41:29;;;;;;;4.33;1.50;;;10.00;99.90;;;;;;5072509;28;20495;-73
2023/03/14 06:43:56;;;;;;;2.30;1.53;;;9.90;99.90;;;;;;5071806;28;20430;-73
2023/03/14 06:46:23;;;;;;;2.30;1.80;;;9.90;99.90;;;;;;5072633;28;20528;-73
2023/03/14 06:48:50;;;;;;;1.20;0.97;;;10.10;99.90;;;;;;5071165;28;20449;-73
2023/03/14 06:51:17;;;;;;;1.37;1.10;;;10.00;99.90;;;;;;5060648;28;20471;-72
2023/03/14 06:53:44;;;;;;;1.50;1.20;;;10.10;99.90;;;;;;5071917;28;20429;-73
2023/03/14 06:56:11;;;;;;;1.50;1.33;;;10.20;99.90;;;;;;5069898;28;20516;-73
2023/03/14 06:58:39;;;;;;;2.17;0.93;;;10.20;99.90;;;;;;5073419;28;20413;-72
2023/03/14 07:01:07;;;;;;;1.40;1.23;;;10.20;99.90;;;;;;5065454;28;20982;-73
2023/03/14 07:03:34;;;;;;;3.00;2.20;;;10.20;99.90;;;;;;5077171;28;20442;-73
2023/03/14 07:06:01;;;;;;;2.77;1.23;;;10.30;99.90;;;;;;5075908;28;20945;-73
2023/03/14 07:08:29;;;;;;;1.00;0.70;;;10.40;99.90;;;;;;5070045;28;20445;-73
2023/03/14 07:10:57;;;;;;;1.70;1.00;;;10.30;99.90;;;;;;5066077;28;20484;-73
2023/03/14 07:13:24;;;;;;;1.50;1.00;;;10.40;99.90;;;;;;5069003;28;20425;-72
2023/03/14 07:15:53;;;;;;;1.33;1.00;;;10.50;99.90;;;;;;5075163;28;20505;-72
2023/03/14 07:18:20;;;;;;;3.73;2.47;;;10.50;99.90;;;;;;5075182;28;20428;-72
2023/03/14 07:20:47;;;;;;;1.47;1.37;;;10.60;99.90;;;;;;5074401;28;20503;-72
2023/03/14 07:23:14;;;;;;;3.00;1.00;;;10.60;99.90;;;;;;5076441;28;20975;-72
2023/03/14 07:25:41;;;;;;;1.40;1.03;;;10.60;99.90;;;;;;5074081;28;20439;-72
2023/03/14 07:28:08;;;;;;;1.00;0.87;;;10.70;99.90;;;;;;5074902;28;20466;-72
2023/03/14 07:30:38;;;;;;;1.73;1.00;;;10.80;99.90;;;;;;5070757;28;20515;-72
2023/03/14 07:33:06;;;;;;;1.20;1.10;;;10.70;99.90;;;;;;5074856;28;20463;-72
2023/03/14 07:35:33;;;;;;;1.20;1.00;;;10.70;99.90;;;;;;5071285;28;20425;-72
2023/03/14 07:38:00;;;;;;;1.10;1.00;;;10.70;99.90;;;;;;5073282;28;20449;-72
2023/03/14 07:40:27;;;;;;;1.40;1.13;;;10.60;99.90;;;;;;5073104;28;20496;-73
2023/03/14 07:42:55;;;;;;;1.20;1.03;;;10.60;99.90;;;;;;5062381;28;20458;-72
2023/03/14 07:45:22;;;;;;;1.20;0.87;;;10.70;99.90;;;;;;5072830;28;20451;-72
2023/03/14 07:47:49;;;;;;;1.37;1.00;;;10.70;99.90;;;;;;5071544;28;20463;-72
2023/03/14 07:50:17;;;;;;;1.57;1.30;;;10.90;99.90;;;;;;5074188;28;20542;-72
2023/03/14 07:52:44;;;;;;;1.10;0.80;;;11.00;99.90;;;;;;5061185;28;20906;-72
2023/03/14 07:55:13;;;;;;;2.43;1.17;;;11.20;99.90;;;;;;5078716;28;20448;-72
2023/03/14 07:57:40;;;;;;;1.10;1.00;;;11.50;99.90;;;;;;5079714;28;20834;-72
2023/03/14 08:00:10;;;;;;;1.37;0.80;;;11.60;99.90;;;;;;5057059;28;20444;-74
2023/03/14 08:02:37;;;;;;;1.10;0.83;;;11.50;99.90;;;;;;5072908;28;20486;-72
2023/03/14 08:05:05;;;;;;;1.00;0.70;;;11.50;99.90;;;;;;5074248;28;20446;-72
2023/03/14 08:07:33;;;;;;;1.10;1.00;;;11.40;99.90;;;;;;5074351;28;20476;-72
2023/03/14 08:10:01;;;;;;;1.10;0.90;;;11.20;99.90;;;;;;5073977;28;20424;-72
2023/03/14 08:12:27;;;;;;;1.00;0.80;;;11.20;99.90;;;;;;5074283;28;20426;-72
2023/03/14 08:14:55;;;;;;;1.20;1.00;;;11.40;99.90;;;;;;5064724;28;20440;-72
2023/03/14 08:17:21;;;;;;;0.90;0.70;;;11.40;99.90;;;;;;5058401;28;20436;-72
2023/03/14 08:19:48;;;;;;;1.00;0.73;;;11.30;99.90;;;;;;5072209;28;20466;-72
2023/03/14 08:22:16;;;;;;;1.00;0.87;;;11.30;99.90;;;;;;5071390;28;20481;-72
2023/03/14 08:24:44;;;;;;;1.23;0.90;;;11.30;99.90;;;;;;5061240;28;20458;-72
2023/03/14 08:27:11;;;;;;;1.30;0.90;;;11.20;99.90;;;;;;5073459;28;20485;-72
2023/03/14 08:29:40;;;;;;;1.10;0.90;;;11.10;99.90;;;;;;5069950;28;20445;-72
2023/03/14 08:32:07;;;;;;;1.20;0.80;;;11.20;99.90;;;;;;5026284;28;20482;-72
2023/03/14 08:34:34;;;;;;;1.67;0.93;;;11.10;99.90;;;;;;5073438;28;20522;-72
2023/03/14 08:37:01;;;;;;;1.23;0.80;;;11.10;99.90;;;;;;5075007;28;20449;-72
2023/03/14 08:39:28;;;;;;;1.87;1.77;;;11.10;99.90;;;;;;5086099;28;20426;-72
2023/03/14 08:41:56;;;;;;;3.87;1.50;;;11.10;99.90;;;;;;5072747;28;20514;-72
2023/03/14 08:44:23;;;;;;;1.80;1.03;;;11.00;99.90;;;;;;5073937;28;20479;-71
2023/03/14 08:46:50;;;;;;;1.30;1.00;;;11.00;99.90;;;;;;5077001;28;20540;-72
2023/03/14 08:49:17;;;;;;;1.80;1.13;;;11.00;99.90;;;;;;5067169;28;20505;-72
2023/03/14 08:51:44;;;;;;;1.10;0.90;;;11.00;99.90;;;;;;5035133;28;20519;-72
2023/03/14 08:54:12;;;;;;;1.43;1.10;;;11.10;99.90;;;;;;5053904;28;20436;-72
2023/03/14 08:56:39;;;;;;;1.23;1.00;;;11.30;99.90;;;;;;5071534;28;20498;-72
2023/03/14 08:59:10;;;;;;;1.33;1.10;;;11.40;99.90;;;;;;5073508;28;20420;-72
2023/03/14 09:01:36;;;;;;;1.00;0.73;;;11.70;99.90;;;;;;5072368;28;21057;-72
2023/03/14 09:04:04;;;;;;;1.80;1.20;;;11.90;99.90;;;;;;5072727;28;20440;-73
2023/03/14 09:06:31;;;;;;;1.20;1.00;;;12.00;99.90;;;;;;5081889;28;20510;-72
2023/03/14 09:08:58;;;;;;;1.57;1.10;;;12.20;99.90;;;;;;5032977;28;20840;-72
2023/03/14 09:11:25;;;;;;;1.20;1.00;;;12.30;99.90;;;;;;5069048;28;20433;-72
2023/03/14 09:13:52;;;;;;;3.20;1.00;;;12.30;99.90;;;;;;5063390;28;20615;-73
2023/03/14 09:16:20;;;;;;;1.30;0.90;;;12.40;99.90;;;;;;5038735;28;20498;-72
2023/03/14 09:18:47;;;;;;;1.20;0.90;;;12.20;99.90;;;;;;5065855;28;21017;-72
2023/03/14 09:21:14;;;;;;;1.10;1.00;;;12.20;99.90;;;;;;5071766;28;20497;-72
2023/03/14 09:23:41;;;;;;;1.03;0.80;;;12.00;99.90;;;;;;5073006;28;20474;-73
2023/03/14 09:26:08;;;;;;;1.47;0.87;;;11.80;99.90;;;;;;5073149;28;20822;-73
2023/03/14 09:28:36;;;;;;;1.00;0.83;;;11.70;99.90;;;;;;5072702;28;20435;-73
2023/03/14 09:31:08;;;;;;;1.10;0.80;;;11.60;99.90;;;;;;5063414;28;20447;-73
2023/03/14 09:33:38;;;;;;;1.10;0.90;;;11.60;99.90;;;;;;5059191;28;20430;-73
2023/03/14 09:36:07;;;;;;;1.67;1.13;;;11.40;99.90;;;;;;5052967;28;20451;-73
2023/03/14 09:38:34;;;;;;;2.07;1.20;;;11.20;99.90;;;;;;5064200;28;20459;-74
2023/03/14 09:41:03;;;;;;;1.60;1.30;;;11.20;99.90;;;;;;5071908;28;20512;-73
2023/03/14 09:43:34;;;;;;;1.57;1.47;;;10.50;99.90;;;;;;5068194;28;20500;-73
2023/03/14 09:46:03;;;;;;;1.00;0.70;;;9.60;99.90;;;;;;5065076;28;20882;-73
2023/03/14 09:48:33;;;;;;;1.30;1.10;;;9.10;99.90;;;;;;5065958;28;20443;-73
2023/03/14 09:51:06;;;;;;;1.40;0.93;;;9.10;99.90;;;;;;5068652;28;20846;-73
2023/03/14 09:53:40;;;;;;;7.20;1.20;;;9.20;99.90;;;;;;5075195;28;20500;-73
2023/03/14 09:56:13;;;;;;;1.10;0.77;;;9.30;99.90;;;;;;5076115;28;20497;-73
2023/03/14 09:58:43;;;;;;;3.07;1.20;;;9.30;99.90;;;;;;5077110;28;20503;-73
2023/03/14 10:01:15;;;;;;;1.30;1.00;;;9.40;99.90;;;;;;5084541;28;20867;-73
2023/03/14 10:03:45;;;;;;;1.00;0.80;;;9.40;99.90;;;;;;5077257;28;20988;-73
2023/03/14 10:06:14;;;;;;;1.10;0.90;;;9.50;99.90;;;;;;5078447;28;20519;-73
2023/03/14 10:08:42;;;;;;;1.50;1.30;;;9.60;99.90;;;;;;5073979;28;20428;-73
2023/03/14 10:11:16;;;;;;;1.20;0.90;;;9.70;99.90;;;;;;5071298;28;20837;-73
2023/03/14 10:14:05;;;;;;;1.00;0.80;;;9.90;99.90;;;;;;5076089;28;20439;-73
2023/03/14 10:16:34;;;;;;;4.27;2.00;;;9.40;99.90;;;;;;5074596;28;20485;-73
2023/03/14 10:19:06;;;;;;;2.17;1.57;;;9.40;99.90;;;;;;5074228;28;20604;-73
2023/03/14 10:21:39;;;;;;;5.93;1.10;;;9.30;99.90;;;;;;5070617;28;20458;-73
2023/03/14 10:24:21;;;;;;;0.90;0.60;;;9.10;99.90;;;;;;5075191;28;20849;-73
2023/03/14 10:26:54;;;;;;;1.00;0.80;;;9.00;99.90;;;;;;5074614;28;20512;-73
2023/03/14 10:29:22;;;;;;;1.17;0.90;;;8.90;99.90;;;;;;5074264;28;20456;-72
2023/03/14 10:31:54;;;;;;;1.30;0.90;;;8.80;99.90;;;;;;5068239;28;20413;-71
2023/03/14 10:34:25;;;;;;;2.80;1.23;;;8.90;99.90;;;;;;5076400;28;20417;-71
2023/03/14 10:36:59;;;;;;;1.50;1.30;;;9.00;99.90;;;;;;5075883;28;20465;-74
2023/03/14 10:39:43;;;;;;;1.03;0.90;;;9.10;99.90;;;;;;5074869;28;20433;-73
2023/03/14 10:42:18;;;;;;;1.00;0.70;;;9.20;99.90;;;;;;5077376;28;20449;-73
2023/03/14 10:44:46;;;;;;;1.10;0.80;;;8.90;99.90;;;;;;5070551;28;20422;-73
2023/03/14 10:47:19;;;;;;;1.00;0.80;;;8.90;99.90;;;;;;5058983;28;20609;-73
2023/03/14 10:49:46;;;;;;;1.10;0.83;;;8.90;99.90;;;;;;5066581;28;20492;-73
2023/03/14 10:52:22;;;;;;;1.00;0.83;;;8.80;99.90;;;;;;5057778;28;20479;-73
2023/03/14 10:54:50;;;;;;;1.07;0.90;;;8.80;99.90;;;;;;5075476;28;20507;-73
2023/03/14 10:57:21;;;;;;;1.23;0.93;;;8.70;99.90;;;;;;5075551;28;20545;-73
2023/03/14 10:59:48;;;;;;;1.73;0.83;;;8.70;99.90;;;;;;5075527;28;20925;-73
2023/03/14 11:02:38;;;;;;;1.97;0.80;;;8.60;99.90;;;;;;5070470;28;20548;-73
2023/03/14 11:05:20;;;;;;;1.10;0.90;;;8.40;99.90;;;;;;5056748;28;20543;-73
2023/03/14 11:07:48;;;;;;;1.43;1.13;;;8.20;99.90;;;;;;5060462;28;20471;-73
2023/03/14 11:10:23;;;;;;;1.47;1.20;;;8.30;99.90;;;;;;5070779;28;20999;-73
2023/03/14 11:13:02;;;;;;;1.07;0.90;;;8.40;99.90;;;;;;5073877;28;20457;-73
2023/03/14 11:15:35;;;;;;;1.33;0.83;;;8.00;99.90;;;;;;5069746;28;20481;-73
2023/03/14 11:18:20;;;;;;;3.10;2.80;;;7.90;99.90;;;;;;5075507;28;20441;-73
2023/03/14 11:20:53;;;;;;;1.20;0.80;;;8.00;99.90;;;;;;5061391;28;20475;-73
2023/03/14 11:23:25;;;;;;;1.50;0.90;;;7.90;99.90;;;;;;5057436;28;20471;-73
2023/03/14 11:25:58;;;;;;;1.30;1.10;;;8.20;99.90;;;;;;5071048;28;20438;-73
2023/03/14 11:28:33;;;;;;;0.90;0.70;;;8.30;99.90;;;;;;5059335;28;20448;-73
2023/03/14 11:31:08;;;;;;;1.20;0.90;;;8.40;99.90;;;;;;5063000;28;20455;-73
2023/03/14 11:33:39;;;;;;;1.00;0.80;;;8.20;99.90;;;;;;5060916;28;20413;-73
2023/03/14 11:36:09;;;;;;;0.90;0.70;;;8.30;99.90;;;;;;5092295;28;20969;-73
2023/03/14 11:38:42;;;;;;;1.00;0.80;;;8.30;99.90;;;;;;5083408;28;20441;-73
2023/03/14 11:41:16;;;;;;;1.30;1.00;;;8.20;99.90;;;;;;5083540;28;20515;-73
2023/03/14 11:43:47;;;;;;;0.90;0.80;;;8.10;99.90;;;;;;5074160;28;20544;-73
2023/03/14 11:46:20;;;;;;;1.20;0.90;;;8.10;99.90;;;;;;5075058;28;20437;-73
2023/03/14 11:48:58;;;;;;;1.30;0.80;;;8.00;99.90;;;;;;5073637;28;20478;-73
2023/03/14 11:51:30;;;;;;;1.00;0.80;;;8.00;99.90;;;;;;5061313;28;20499;-73
2023/03/14 11:54:05;;;;;;;1.00;0.80;;;7.80;99.90;;;;;;5074825;28;20459;-73
2023/03/14 11:56:38;;;;;;;1.40;1.17;;;8.00;99.90;;;;;;5069842;28;20484;-73
2023/03/14 11:59:10;;;;;;;3.10;2.03;;;8.20;99.90;;;;;;5074399;28;20441;-73
2023/03/14 12:01:51;;;;;;;1.20;0.90;;;8.20;99.90;;;;;;5074685;28;20427;-73
2023/03/14 12:04:29;;;;;;;1.47;0.77;;;8.10;99.90;;;;;;5074414;28;20470;-73
2023/03/14 12:07:02;;;;;;;1.10;1.00;;;7.90;99.90;;;;;;5069931;28;20538;-73
2023/03/14 12:09:34;;;;;;;1.00;0.80;;;7.70;99.90;;;;;;5058384;28;20441;-73
2023/03/14 12:12:04;;;;;;;1.00;0.70;;;7.70;99.90;;;;;;5061747;28;20439;-73
2023/03/14 12:14:33;;;;;;;1.20;1.10;;;7.80;99.90;;;;;;5055849;28;20510;-73
2023/03/14 12:17:06;;;;;;;1.50;1.10;;;7.80;99.90;;;;;;5071232;28;20433;-73
2023/03/14 12:19:36;;;;;;;1.20;0.90;;;8.10;99.90;;;;;;5073559;28;20526;-73
2023/03/14 12:22:28;;;;;;;1.20;1.10;;;8.30;99.90;;;;;;5067270;28;20505;-73
2023/03/14 12:25:05;;;;;;;1.40;1.20;;;8.50;99.90;;;;;;5061056;28;20529;-73
2023/03/14 12:28:03;;;;;;;1.50;1.13;;;8.70;99.90;;;;;;5070512;28;20470;-73
2023/03/14 12:30:32;;;;;;;1.63;1.00;;;9.00;99.90;;;;;;5062162;28;20501;-73
2023/03/14 12:33:35;;;;;;;1.00;0.73;;;9.10;99.90;;;;;;5058679;28;20437;-71
2023/03/14 12:36:05;;;;;;;2.27;1.20;;;8.80;99.90;;;;;;5062506;28;20450;-71
2023/03/14 12:38:57;;;;;;;2.80;0.93;;;8.90;99.90;;;;;;5032610;28;20521;-72
2023/03/14 12:41:30;;;;;;;2.60;1.63;;;8.70;99.90;;;;;;5076771;28;20442;-72
2023/03/14 12:43:57;;;;;;;1.10;0.90;;;8.70;99.90;;;;;;5071300;28;20499;-72
2023/03/14 12:46:26;;;;;;;1.93;1.67;;;8.90;99.90;;;;;;5060431;28;20498;-72
2023/03/14 12:49:04;;;;;;;2.70;1.00;;;8.90;99.90;;;;;;5073664;28;20439;-72
2023/03/14 12:51:36;;;;;;;3.20;1.40;;;8.90;99.90;;;;;;5058897;28;20534;-72
2023/03/14 12:54:33;;;;;;;2.40;1.20;;;8.90;99.90;;;;;;5053896;28;20490;-72
2023/03/14 12:57:26;;;;;;;1.00;0.73;;;8.60;99.90;;;;;;5053158;28;20494;-72
2023/03/14 12:59:57;;;;;;;2.57;0.90;;;8.30;99.90;;;;;;5063641;28;20454;-72
2023/03/14 13:02:29;;;;;;;10.03;1.30;;;8.00;99.90;;;;;;5069068;28;20475;-72